Olmito, Texas
Current Conditions -  °F | °C
As of 5:53 PM on Sunday 25 Jan 2015 (Local Time) from KBRO Reporting Station
Clear Clear  
Wind Chill: 64°   Ceiling: Unl
Heat Index: 64°   Visibility: 10mi
Dew Point: 48°   Wind: 5mph
Humidity: 56%   Direction: 340°NNW
Pressure: 30.13"   Gusts: NA
Location:  26.02°N, 97.53°W
Report Text: KBRO 252353Z 34004KT 10SM CLR 18/09 A3013 RMK AO2 SLP201 T01780089 10211 20178 53009
Loading
Personal Weather Stations






























Interactive Weather Map New forecast layout! Learn more

10-Day Weather Forecast

Advertisements
Track Severe Weather on mobile